sensor_id;sensor_type;location;lat;lon;timestamp;pressure;altitude;pressure_sealevel;temperature;humidity
64078;BME280;51039;49.696;10.808;2023-02-13T00:02:13;100428.59;;;0.95;98.64
64078;BME280;51039;49.696;10.808;2023-02-13T00:04:39;100433.13;;;0.91;98.35
64078;BME280;51039;49.696;10.808;2023-02-13T00:07:06;100423.16;;;0.84;98.05
64078;BME280;51039;49.696;10.808;2023-02-13T00:09:32;100427.78;;;0.78;97.91
64078;BME280;51039;49.696;10.808;2023-02-13T00:11:57;100420.41;;;0.71;97.96
64078;BME280;51039;49.696;10.808;2023-02-13T00:14:22;100427.69;;;0.66;97.79
64078;BME280;51039;49.696;10.808;2023-02-13T00:16:48;100424.84;;;0.54;97.40
64078;BME280;51039;49.696;10.808;2023-02-13T00:19:13;100428.72;;;0.47;97.71
64078;BME280;51039;49.696;10.808;2023-02-13T00:21:38;100422.44;;;0.35;97.65
64078;BME280;51039;49.696;10.808;2023-02-13T00:24:03;100413.47;;;0.25;97.65
64078;BME280;51039;49.696;10.808;2023-02-13T00:26:29;100416.97;;;0.24;98.21
64078;BME280;51039;49.696;10.808;2023-02-13T00:28:55;100423.03;;;0.25;98.41
64078;BME280;51039;49.696;10.808;2023-02-13T00:31:20;100417.06;;;0.23;98.56
64078;BME280;51039;49.696;10.808;2023-02-13T00:33:46;100411.34;;;0.16;98.32
64078;BME280;51039;49.696;10.808;2023-02-13T00:36:13;100408.16;;;0.11;98.61
64078;BME280;51039;49.696;10.808;2023-02-13T00:38:41;100412.63;;;0.09;99.04
64078;BME280;51039;49.696;10.808;2023-02-13T00:41:07;100419.53;;;0.10;99.33
64078;BME280;51039;49.696;10.808;2023-02-13T00:43:32;100417.34;;;0.02;100.00
64078;BME280;51039;49.696;10.808;2023-02-13T00:45:58;100416.41;;;0.03;99.60
64078;BME280;51039;49.696;10.808;2023-02-13T00:48:24;100414.81;;;0.01;98.79
64078;BME280;51039;49.696;10.808;2023-02-13T00:50:49;100423.06;;;-0.07;98.54
64078;BME280;51039;49.696;10.808;2023-02-13T00:53:18;100417.91;;;-0.09;98.52
64078;BME280;51039;49.696;10.808;2023-02-13T00:55:45;100424.16;;;-0.11;99.02
64078;BME280;51039;49.696;10.808;2023-02-13T00:58:10;100413.19;;;-0.18;98.41
64078;BME280;51039;49.696;10.808;2023-02-13T01:00:36;100419.50;;;-0.22;98.20
64078;BME280;51039;49.696;10.808;2023-02-13T01:03:02;100417.25;;;-0.28;98.09
64078;BME280;51039;49.696;10.808;2023-02-13T01:05:27;100416.47;;;-0.30;97.86
64078;BME280;51039;49.696;10.808;2023-02-13T01:07:53;100419.41;;;-0.36;98.16
64078;BME280;51039;49.696;10.808;2023-02-13T01:10:19;100417.13;;;-0.43;98.08
64078;BME280;51039;49.696;10.808;2023-02-13T01:12:44;100411.00;;;-0.42;98.56
64078;BME280;51039;49.696;10.808;2023-02-13T01:15:09;100413.75;;;-0.45;99.13
64078;BME280;51039;49.696;10.808;2023-02-13T01:17:35;100410.25;;;-0.44;99.83
64078;BME280;51039;49.696;10.808;2023-02-13T01:20:03;100418.47;;;-0.35;100.00
64078;BME280;51039;49.696;10.808;2023-02-13T01:22:30;100409.16;;;-0.40;100.00
64078;BME280;51039;49.696;10.808;2023-02-13T01:24:55;100420.66;;;-0.44;100.00
64078;BME280;51039;49.696;10.808;2023-02-13T01:27:21;100415.78;;;-0.50;100.00
64078;BME280;51039;49.696;10.808;2023-02-13T01:29:46;100413.59;;;-0.57;100.00
64078;BME280;51039;49.696;10.808;2023-02-13T01:32:12;100412.22;;;-0.65;100.00
64078;BME280;51039;49.696;10.808;2023-02-13T01:34:37;100406.34;;;-0.68;100.00
64078;BME280;51039;49.696;10.808;2023-02-13T01:37:03;100406.59;;;-0.73;100.00
64078;BME280;51039;49.696;10.808;2023-02-13T01:39:28;100404.22;;;-0.77;100.00
64078;BME280;51039;49.696;10.808;2023-02-13T01:41:53;100399.69;;;-0.74;100.00
64078;BME280;51039;49.696;10.808;2023-02-13T01:47:13;100408.25;;;-0.72;100.00
64078;BME280;51039;49.696;10.808;2023-02-13T01:49:44;100408.03;;;-0.67;100.00
64078;BME280;51039;49.696;10.808;2023-02-13T01:52:11;100408.69;;;-0.64;100.00
64078;BME280;51039;49.696;10.808;2023-02-13T01:54:40;100414.56;;;-0.60;100.00
64078;BME280;51039;49.696;10.808;2023-02-13T01:57:13;100410.22;;;-0.60;100.00
64078;BME280;51039;49.696;10.808;2023-02-13T01:59:47;100409.22;;;-0.57;100.00
64078;BME280;51039;49.696;10.808;2023-02-13T02:02:16;100402.66;;;-0.64;100.00
64078;BME280;51039;49.696;10.808;2023-02-13T02:04:43;100398.69;;;-0.71;100.00
64078;BME280;51039;49.696;10.808;2023-02-13T02:07:11;100405.66;;;-0.72;100.00
64078;BME280;51039;49.696;10.808;2023-02-13T02:09:41;100401.47;;;-0.74;100.00
64078;BME280;51039;49.696;10.808;2023-02-13T02:14:54;100403.41;;;-0.62;100.00
64078;BME280;51039;49.696;10.808;2023-02-13T02:17:22;100403.41;;;-0.62;100.00
64078;BME280;51039;49.696;10.808;2023-02-13T02:25:26;100405.66;;;-0.38;100.00
64078;BME280;51039;49.696;10.808;2023-02-13T02:31:15;100405.88;;;-0.27;100.00
64078;BME280;51039;49.696;10.808;2023-02-13T02:36:23;100404.63;;;-0.20;100.00
64078;BME280;51039;49.696;10.808;2023-02-13T02:39:11;100401.00;;;-0.33;100.00
64078;BME280;51039;49.696;10.808;2023-02-13T02:41:44;100407.91;;;-0.32;100.00
64078;BME280;51039;49.696;10.808;2023-02-13T02:46:50;100406.06;;;-0.30;100.00
64078;BME280;51039;49.696;10.808;2023-02-13T02:49:47;100402.84;;;-0.35;100.00
64078;BME280;51039;49.696;10.808;2023-02-13T02:52:26;100413.28;;;-0.35;100.00
64078;BME280;51039;49.696;10.808;2023-02-13T02:55:05;100408.06;;;-0.35;100.00
64078;BME280;51039;49.696;10.808;2023-02-13T02:57:44;100410.06;;;-0.41;100.00
64078;BME280;51039;49.696;10.808;2023-02-13T03:00:38;100406.88;;;-0.46;100.00
64078;BME280;51039;49.696;10.808;2023-02-13T03:03:24;100405.38;;;-0.50;100.00
64078;BME280;51039;49.696;10.808;2023-02-13T03:06:11;100408.81;;;-0.49;100.00
64078;BME280;51039;49.696;10.808;2023-02-13T03:08:42;100415.03;;;-0.52;100.00
64078;BME280;51039;49.696;10.808;2023-02-13T03:11:28;100409.81;;;-0.52;100.00
64078;BME280;51039;49.696;10.808;2023-02-13T03:14:14;100409.63;;;-0.65;100.00
64078;BME280;51039;49.696;10.808;2023-02-13T03:16:44;100415.19;;;-0.55;100.00
64078;BME280;51039;49.696;10.808;2023-02-13T03:28:16;100413.25;;;-0.51;100.00
64078;BME280;51039;49.696;10.808;2023-02-13T03:39:18;100414.41;;;-0.57;100.00
64078;BME280;51039;49.696;10.808;2023-02-13T03:41:57;100414.53;;;-0.76;100.00
64078;BME280;51039;49.696;10.808;2023-02-13T03:44:30;100418.72;;;-0.73;100.00
64078;BME280;51039;49.696;10.808;2023-02-13T03:47:01;100422.56;;;-0.63;100.00
64078;BME280;51039;49.696;10.808;2023-02-13T03:49:30;100420.78;;;-0.63;100.00
64078;BME280;51039;49.696;10.808;2023-02-13T03:52:24;100416.50;;;-0.64;100.00
64078;BME280;51039;49.696;10.808;2023-02-13T03:54:59;100423.31;;;-0.61;100.00
64078;BME280;51039;49.696;10.808;2023-02-13T03:57:47;100424.97;;;-0.60;100.00
64078;BME280;51039;49.696;10.808;2023-02-13T04:00:35;100429.03;;;-0.54;100.00
64078;BME280;51039;49.696;10.808;2023-02-13T04:05:49;100420.94;;;-0.66;100.00
64078;BME280;51039;49.696;10.808;2023-02-13T04:08:19;100417.28;;;-0.62;100.00
64078;BME280;51039;49.696;10.808;2023-02-13T04:10:59;100424.84;;;-0.57;100.00
64078;BME280;51039;49.696;10.808;2023-02-13T04:13:34;100421.28;;;-0.56;100.00
64078;BME280;51039;49.696;10.808;2023-02-13T04:16:08;100423.00;;;-0.55;100.00
64078;BME280;51039;49.696;10.808;2023-02-13T04:18:38;100427.59;;;-0.60;100.00
64078;BME280;51039;49.696;10.808;2023-02-13T04:21:04;100427.69;;;-0.62;100.00
64078;BME280;51039;49.696;10.808;2023-02-13T04:23:31;100429.84;;;-0.70;100.00
64078;BME280;51039;49.696;10.808;2023-02-13T04:25:57;100423.72;;;-0.69;100.00
64078;BME280;51039;49.696;10.808;2023-02-13T04:28:26;100425.16;;;-0.63;100.00
64078;BME280;51039;49.696;10.808;2023-02-13T04:30:51;100420.44;;;-0.72;100.00
64078;BME280;51039;49.696;10.808;2023-02-13T04:33:16;100416.06;;;-0.72;100.00
64078;BME280;51039;49.696;10.808;2023-02-13T04:35:42;100415.16;;;-0.71;100.00
64078;BME280;51039;49.696;10.808;2023-02-13T04:38:07;100420.72;;;-0.61;100.00
64078;BME280;51039;49.696;10.808;2023-02-13T04:40:32;100428.19;;;-0.55;100.00
64078;BME280;51039;49.696;10.808;2023-02-13T04:42:58;100422.84;;;-0.52;100.00
64078;BME280;51039;49.696;10.808;2023-02-13T04:45:23;100424.00;;;-0.57;100.00
64078;BME280;51039;49.696;10.808;2023-02-13T04:47:52;100420.88;;;-0.64;100.00
64078;BME280;51039;49.696;10.808;2023-02-13T04:50:18;100428.09;;;-0.69;100.00
64078;BME280;51039;49.696;10.808;2023-02-13T04:52:44;100422.59;;;-0.81;100.00
64078;BME280;51039;49.696;10.808;2023-02-13T04:55:10;100419.59;;;-0.73;100.00
64078;BME280;51039;49.696;10.808;2023-02-13T04:57:35;100422.34;;;-0.76;100.00
64078;BME280;51039;49.696;10.808;2023-02-13T05:00:00;100422.59;;;-0.81;100.00
64078;BME280;51039;49.696;10.808;2023-02-13T05:02:28;100420.47;;;-1.07;100.00
64078;BME280;51039;49.696;10.808;2023-02-13T05:04:55;100425.81;;;-1.10;100.00
64078;BME280;51039;49.696;10.808;2023-02-13T05:07:20;100418.94;;;-0.94;100.00
64078;BME280;51039;49.696;10.808;2023-02-13T05:09:45;100421.00;;;-1.01;100.00
64078;BME280;51039;49.696;10.808;2023-02-13T05:12:11;100420.28;;;-0.87;100.00
64078;BME280;51039;49.696;10.808;2023-02-13T05:14:36;100418.38;;;-0.83;100.00
64078;BME280;51039;49.696;10.808;2023-02-13T05:17:01;100425.09;;;-0.79;100.00
64078;BME280;51039;49.696;10.808;2023-02-13T05:19:26;100426.47;;;-0.72;100.00
64078;BME280;51039;49.696;10.808;2023-02-13T05:21:52;100436.19;;;-0.75;100.00
64078;BME280;51039;49.696;10.808;2023-02-13T05:24:36;100442.78;;;-0.68;100.00
64078;BME280;51039;49.696;10.808;2023-02-13T05:27:01;100439.72;;;-0.76;100.00
64078;BME280;51039;49.696;10.808;2023-02-13T05:29:26;100437.72;;;-0.71;100.00
64078;BME280;51039;49.696;10.808;2023-02-13T05:31:52;100438.78;;;-0.75;100.00
64078;BME280;51039;49.696;10.808;2023-02-13T05:34:20;100445.69;;;-0.74;100.00
64078;BME280;51039;49.696;10.808;2023-02-13T05:36:46;100443.25;;;-0.77;100.00
64078;BME280;51039;49.696;10.808;2023-02-13T05:39:12;100447.47;;;-0.75;100.00
64078;BME280;51039;49.696;10.808;2023-02-13T05:41:39;100445.25;;;-0.83;100.00
64078;BME280;51039;49.696;10.808;2023-02-13T05:44:04;100445.06;;;-0.80;100.00
64078;BME280;51039;49.696;10.808;2023-02-13T05:46:29;100446.09;;;-0.82;100.00
64078;BME280;51039;49.696;10.808;2023-02-13T05:48:55;100446.78;;;-0.78;100.00
64078;BME280;51039;49.696;10.808;2023-02-13T05:51:20;100449.13;;;-0.74;100.00
64078;BME280;51039;49.696;10.808;2023-02-13T05:53:46;100447.28;;;-0.72;100.00
64078;BME280;51039;49.696;10.808;2023-02-13T05:56:11;100449.88;;;-0.72;100.00
64078;BME280;51039;49.696;10.808;2023-02-13T05:58:36;100448.38;;;-0.76;100.00
64078;BME280;51039;49.696;10.808;2023-02-13T06:01:02;100459.31;;;-0.69;100.00
64078;BME280;51039;49.696;10.808;2023-02-13T06:03:28;100455.72;;;-0.67;100.00
64078;BME280;51039;49.696;10.808;2023-02-13T06:05:54;100455.72;;;-0.67;100.00
64078;BME280;51039;49.696;10.808;2023-02-13T06:08:21;100455.72;;;-0.67;100.00
64078;BME280;51039;49.696;10.808;2023-02-13T06:10:47;100465.97;;;-0.81;100.00
64078;BME280;51039;49.696;10.808;2023-02-13T06:13:12;100462.38;;;-0.78;100.00
64078;BME280;51039;49.696;10.808;2023-02-13T06:15:38;100466.59;;;-0.76;100.00
64078;BME280;51039;49.696;10.808;2023-02-13T06:18:05;100466.50;;;-0.74;100.00
64078;BME280;51039;49.696;10.808;2023-02-13T06:20:31;100471.72;;;-0.74;100.00
64078;BME280;51039;49.696;10.808;2023-02-13T06:22:56;100467.66;;;-0.80;100.00
64078;BME280;51039;49.696;10.808;2023-02-13T06:25:22;100476.38;;;-0.81;100.00
64078;BME280;51039;49.696;10.808;2023-02-13T06:27:47;100472.19;;;-0.84;100.00
64078;BME280;51039;49.696;10.808;2023-02-13T06:30:13;100483.19;;;-0.78;100.00
64078;BME280;51039;49.696;10.808;2023-02-13T06:32:39;100486.56;;;-0.76;100.00
64078;BME280;51039;49.696;10.808;2023-02-13T06:35:05;100483.72;;;-0.89;100.00
64078;BME280;51039;49.696;10.808;2023-02-13T06:37:31;100488.47;;;-0.80;100.00
64078;BME280;51039;49.696;10.808;2023-02-13T06:39:56;100487.16;;;-0.71;100.00
64078;BME280;51039;49.696;10.808;2023-02-13T06:42:22;100491.78;;;-0.76;100.00
64078;BME280;51039;49.696;10.808;2023-02-13T06:44:47;100490.69;;;-0.72;100.00
64078;BME280;51039;49.696;10.808;2023-02-13T06:47:12;100494.19;;;-0.73;100.00
64078;BME280;51039;49.696;10.808;2023-02-13T06:49:38;100494.50;;;-0.80;100.00
64078;BME280;51039;49.696;10.808;2023-02-13T06:52:03;100503.56;;;-0.69;100.00
64078;BME280;51039;49.696;10.808;2023-02-13T06:54:28;100507.84;;;-0.86;100.00
64078;BME280;51039;49.696;10.808;2023-02-13T06:56:54;100507.97;;;-1.06;100.00
64078;BME280;51039;49.696;10.808;2023-02-13T06:59:19;100512.72;;;-1.14;100.00
64078;BME280;51039;49.696;10.808;2023-02-13T07:01:44;100514.50;;;-1.15;100.00
64078;BME280;51039;49.696;10.808;2023-02-13T07:04:09;100509.06;;;-1.10;100.00
64078;BME280;51039;49.696;10.808;2023-02-13T07:06:35;100511.59;;;-1.09;100.00
64078;BME280;51039;49.696;10.808;2023-02-13T07:09:01;100516.78;;;-1.09;100.00
64078;BME280;51039;49.696;10.808;2023-02-13T07:11:27;100520.66;;;-1.17;100.00
64078;BME280;51039;49.696;10.808;2023-02-13T07:13:53;100523.88;;;-1.12;100.00
64078;BME280;51039;49.696;10.808;2023-02-13T07:16:18;100521.75;;;-1.04;100.00
64078;BME280;51039;49.696;10.808;2023-02-13T07:18:43;100519.44;;;-1.10;100.00
64078;BME280;51039;49.696;10.808;2023-02-13T07:21:09;100524.22;;;-1.01;100.00
64078;BME280;51039;49.696;10.808;2023-02-13T07:23:34;100529.34;;;-1.00;100.00
64078;BME280;51039;49.696;10.808;2023-02-13T07:26:00;100519.84;;;-1.01;100.00
64078;BME280;51039;49.696;10.808;2023-02-13T07:28:26;100524.91;;;-0.97;100.00
64078;BME280;51039;49.696;10.808;2023-02-13T07:30:52;100518.00;;;-0.99;100.00
64078;BME280;51039;49.696;10.808;2023-02-13T07:33:18;100529.03;;;-0.93;100.00
64078;BME280;51039;49.696;10.808;2023-02-13T07:35:50;100527.44;;;-0.96;100.00
64078;BME280;51039;49.696;10.808;2023-02-13T07:38:16;100526.13;;;-1.05;100.00
64078;BME280;51039;49.696;10.808;2023-02-13T07:40:43;100525.22;;;-1.04;100.00
64078;BME280;51039;49.696;10.808;2023-02-13T07:43:08;100523.69;;;-0.90;100.00
64078;BME280;51039;49.696;10.808;2023-02-13T07:45:34;100526.28;;;-0.73;100.00
64078;BME280;51039;49.696;10.808;2023-02-13T07:47:59;100521.75;;;-0.52;100.00
64078;BME280;51039;49.696;10.808;2023-02-13T07:50:25;100524.19;;;-0.49;100.00
64078;BME280;51039;49.696;10.808;2023-02-13T07:52:52;100523.25;;;0.51;100.00
64078;BME280;51039;49.696;10.808;2023-02-13T07:55:21;100520.22;;;0.11;100.00
64078;BME280;51039;49.696;10.808;2023-02-13T07:57:47;100514.84;;;0.46;100.00
64078;BME280;51039;49.696;10.808;2023-02-13T08:00:13;100520.44;;;1.16;100.00
64078;BME280;51039;49.696;10.808;2023-02-13T08:02:39;100513.88;;;1.53;100.00
64078;BME280;51039;49.696;10.808;2023-02-13T08:05:04;100521.22;;;1.32;99.25
64078;BME280;51039;49.696;10.808;2023-02-13T08:07:30;100524.72;;;1.90;100.00
64078;BME280;51039;49.696;10.808;2023-02-13T08:09:55;100518.19;;;1.98;98.84
64078;BME280;51039;49.696;10.808;2023-02-13T08:12:39;100520.03;;;2.24;97.60
64078;BME280;51039;49.696;10.808;2023-02-13T08:15:04;100520.97;;;2.09;95.78
64078;BME280;51039;49.696;10.808;2023-02-13T08:17:30;100522.75;;;1.51;93.02
64078;BME280;51039;49.696;10.808;2023-02-13T08:19:56;100527.69;;;1.84;96.38
64078;BME280;51039;49.696;10.808;2023-02-13T08:22:21;100517.41;;;1.38;94.89
64078;BME280;51039;49.696;10.808;2023-02-13T08:24:46;100522.69;;;1.22;95.97
64078;BME280;51039;49.696;10.808;2023-02-13T08:27:12;100528.06;;;1.05;96.99
64078;BME280;51039;49.696;10.808;2023-02-13T08:29:38;100530.50;;;1.95;99.49
64078;BME280;51039;49.696;10.808;2023-02-13T08:32:04;100522.59;;;2.39;94.70
64078;BME280;51039;49.696;10.808;2023-02-13T08:34:29;100513.66;;;2.70;90.84
64078;BME280;51039;49.696;10.808;2023-02-13T08:36:55;100517.91;;;2.02;90.04
64078;BME280;51039;49.696;10.808;2023-02-13T08:39:20;100527.78;;;1.09;93.16
64078;BME280;51039;49.696;10.808;2023-02-13T08:41:45;100524.53;;;0.90;94.84
64078;BME280;51039;49.696;10.808;2023-02-13T08:44:10;100525.94;;;0.17;97.57
64078;BME280;51039;49.696;10.808;2023-02-13T08:46:36;100524.03;;;-0.12;99.54
64078;BME280;51039;49.696;10.808;2023-02-13T08:49:01;100522.41;;;0.03;99.71
64078;BME280;51039;49.696;10.808;2023-02-13T08:51:27;100524.25;;;0.01;99.19
64078;BME280;51039;49.696;10.808;2023-02-13T08:53:52;100520.22;;;0.11;100.00
64078;BME280;51039;49.696;10.808;2023-02-13T08:56:18;100524.44;;;0.29;99.85
64078;BME280;51039;49.696;10.808;2023-02-13T08:58:43;100524.84;;;0.53;98.95
64078;BME280;51039;49.696;10.808;2023-02-13T09:01:08;100536.09;;;0.54;99.03
64078;BME280;51039;49.696;10.808;2023-02-13T09:03:34;100532.16;;;0.63;98.05
64078;BME280;51039;49.696;10.808;2023-02-13T09:06:00;100534.09;;;0.59;98.13
64078;BME280;51039;49.696;10.808;2023-02-13T09:08:26;100529.63;;;0.61;97.40
64078;BME280;51039;49.696;10.808;2023-02-13T09:10:56;100532.47;;;0.72;97.35
64078;BME280;51039;49.696;10.808;2023-02-13T09:13:28;100527.25;;;0.72;98.75
64078;BME280;51039;49.696;10.808;2023-02-13T09:15:58;100527.59;;;0.82;98.65
64078;BME280;51039;49.696;10.808;2023-02-13T09:18:24;100532.81;;;0.82;97.39
64078;BME280;51039;49.696;10.808;2023-02-13T09:20:50;100529.63;;;1.07;97.18
64078;BME280;51039;49.696;10.808;2023-02-13T09:23:24;100531.44;;;0.91;96.60
64078;BME280;51039;49.696;10.808;2023-02-13T09:25:50;100531.78;;;1.01;96.91
64078;BME280;51039;49.696;10.808;2023-02-13T09:28:15;100526.03;;;0.94;96.20
64078;BME280;51039;49.696;10.808;2023-02-13T09:30:40;100522.13;;;0.87;96.88
64078;BME280;51039;49.696;10.808;2023-02-13T09:33:08;100530.34;;;0.95;96.91
64078;BME280;51039;49.696;10.808;2023-02-13T09:35:36;100533.19;;;1.06;96.88
64078;BME280;51039;49.696;10.808;2023-02-13T09:38:01;100537.38;;;0.63;97.32
64078;BME280;51039;49.696;10.808;2023-02-13T09:45:53;100536.41;;;1.26;96.04
64078;BME280;51039;49.696;10.808;2023-02-13T09:48:30;100532.53;;;1.33;95.18
64078;BME280;51039;49.696;10.808;2023-02-13T09:51:00;100535.00;;;1.34;95.43
64078;BME280;51039;49.696;10.808;2023-02-13T09:53:26;100538.22;;;1.54;94.87
64078;BME280;51039;49.696;10.808;2023-02-13T09:58:37;100541.91;;;1.94;92.64
64078;BME280;51039;49.696;10.808;2023-02-13T10:01:18;100537.44;;;1.96;92.08
64078;BME280;51039;49.696;10.808;2023-02-13T10:06:39;100534.75;;;2.40;90.37
64078;BME280;51039;49.696;10.808;2023-02-13T10:09:36;100532.56;;;1.90;93.02
64078;BME280;51039;49.696;10.808;2023-02-13T10:17:23;100537.03;;;2.03;93.87
64078;BME280;51039;49.696;10.808;2023-02-13T10:19:56;100532.94;;;1.70;94.18
64078;BME280;51039;49.696;10.808;2023-02-13T10:22:29;100531.28;;;1.83;94.21
64078;BME280;51039;49.696;10.808;2023-02-13T10:25:16;100536.31;;;1.72;94.12
64078;BME280;51039;49.696;10.808;2023-02-13T10:28:29;100533.28;;;1.92;93.96
64078;BME280;51039;49.696;10.808;2023-02-13T10:30:41;100526.28;;;2.22;93.85
64078;BME280;51039;49.696;10.808;2023-02-13T10:39:07;100531.25;;;2.12;94.37
64078;BME280;51039;49.696;10.808;2023-02-13T10:41:49;100533.66;;;2.29;94.00
64078;BME280;51039;49.696;10.808;2023-02-13T10:47:38;100529.75;;;2.08;94.14
64078;BME280;51039;49.696;10.808;2023-02-13T10:53:22;100536.09;;;1.75;95.87
64078;BME280;51039;49.696;10.808;2023-02-13T10:56:02;100526.69;;;1.87;95.76
64078;BME280;51039;49.696;10.808;2023-02-13T10:58:54;100531.00;;;2.02;94.58
64078;BME280;51039;49.696;10.808;2023-02-13T11:04:02;100525.66;;;2.18;94.50
64078;BME280;51039;49.696;10.808;2023-02-13T11:06:31;100518.25;;;2.25;93.54
64078;BME280;51039;49.696;10.808;2023-02-13T11:08:59;100510.78;;;2.19;93.76
64078;BME280;51039;49.696;10.808;2023-02-13T11:11:36;100522.59;;;1.97;94.75
64078;BME280;51039;49.696;10.808;2023-02-13T11:16:52;100514.91;;;2.08;95.46
64078;BME280;51039;49.696;10.808;2023-02-13T11:19:29;100503.69;;;2.21;95.01
64078;BME280;51039;49.696;10.808;2023-02-13T11:22:16;100504.56;;;2.07;95.42
64078;BME280;51039;49.696;10.808;2023-02-13T11:24:57;100502.28;;;2.29;95.37
64078;BME280;51039;49.696;10.808;2023-02-13T11:27:31;100505.13;;;2.12;96.07
64078;BME280;51039;49.696;10.808;2023-02-13T11:30:43;100506.03;;;2.25;95.93
64078;BME280;51039;49.696;10.808;2023-02-13T11:32:55;100508.34;;;2.57;94.02
64078;BME280;51039;49.696;10.808;2023-02-13T11:35:45;100514.91;;;2.08;95.37
64078;BME280;51039;49.696;10.808;2023-02-13T11:40:40;100499.75;;;2.28;95.83
64078;BME280;51039;49.696;10.808;2023-02-13T11:43:30;100508.59;;;2.40;94.94
64078;BME280;51039;49.696;10.808;2023-02-13T11:48:28;100507.03;;;2.64;93.89
64078;BME280;51039;49.696;10.808;2023-02-13T11:50:54;100501.91;;;2.63;93.47
64078;BME280;51039;49.696;10.808;2023-02-13T11:53:21;100495.38;;;2.55;94.16
64078;BME280;51039;49.696;10.808;2023-02-13T11:56:11;100500.75;;;2.67;93.96
64078;BME280;51039;49.696;10.808;2023-02-13T11:58:38;100497.50;;;3.03;93.23
64078;BME280;51039;49.696;10.808;2023-02-13T12:01:22;100498.28;;;3.31;92.09
64078;BME280;51039;49.696;10.808;2023-02-13T12:04:01;100485.47;;;3.13;92.64
64078;BME280;51039;49.696;10.808;2023-02-13T12:06:40;100487.22;;;3.00;91.98
64078;BME280;51039;49.696;10.808;2023-02-13T12:09:11;100485.38;;;3.02;93.24
64078;BME280;51039;49.696;10.808;2023-02-13T12:11:50;100484.78;;;3.37;92.58
64078;BME280;51039;49.696;10.808;2023-02-13T12:14:21;100481.44;;;3.61;91.28
64078;BME280;51039;49.696;10.808;2023-02-13T12:17:00;100478.16;;;3.44;90.59
64078;BME280;51039;49.696;10.808;2023-02-13T12:19:40;100473.88;;;3.69;90.81
64078;BME280;51039;49.696;10.808;2023-02-13T12:22:17;100470.75;;;3.51;90.30
64078;BME280;51039;49.696;10.808;2023-02-13T12:30:33;100463.41;;;4.06;89.84
64078;BME280;51039;49.696;10.808;2023-02-13T12:36:00;100449.81;;;4.01;90.27
64078;BME280;51039;49.696;10.808;2023-02-13T12:41:20;100436.97;;;4.81;86.77
64078;BME280;51039;49.696;10.808;2023-02-13T13:02:50;100429.84;;;3.74;91.29
64078;BME280;51039;49.696;10.808;2023-02-13T13:08:06;100424.50;;;4.00;91.91
64078;BME280;51039;49.696;10.808;2023-02-13T13:10:54;100418.88;;;3.93;91.66
64078;BME280;51039;49.696;10.808;2023-02-13T13:22:04;100409.66;;;4.48;90.49
64078;BME280;51039;49.696;10.808;2023-02-13T13:27:31;100393.59;;;4.64;90.39
64078;BME280;51039;49.696;10.808;2023-02-13T13:30:03;100388.84;;;4.81;89.66
64078;BME280;51039;49.696;10.808;2023-02-13T13:32:37;100394.84;;;4.94;88.99
64078;BME280;51039;49.696;10.808;2023-02-13T13:35:05;100398.66;;;4.90;88.72
64078;BME280;51039;49.696;10.808;2023-02-13T13:37:44;100388.91;;;5.03;89.18
64078;BME280;51039;49.696;10.808;2023-02-13T13:40:42;100394.78;;;5.18;87.99
64078;BME280;51039;49.696;10.808;2023-02-13T13:43:30;100398.25;;;5.30;87.22
64078;BME280;51039;49.696;10.808;2023-02-13T13:46:20;100394.78;;;5.41;87.13
64078;BME280;51039;49.696;10.808;2023-02-13T13:49:33;100388.22;;;5.46;86.55
64078;BME280;51039;49.696;10.808;2023-02-13T13:54:45;100375.31;;;5.55;86.47
64078;BME280;51039;49.696;10.808;2023-02-13T13:57:15;100379.97;;;5.62;85.69
64078;BME280;51039;49.696;10.808;2023-02-13T14:07:46;100364.75;;;5.88;85.86
64078;BME280;51039;49.696;10.808;2023-02-13T14:20:41;100356.09;;;6.20;84.13
64078;BME280;51039;49.696;10.808;2023-02-13T14:23:16;100362.25;;;6.31;84.52
64078;BME280;51039;49.696;10.808;2023-02-13T14:28:53;100360.84;;;6.26;84.42
64078;BME280;51039;49.696;10.808;2023-02-13T14:33:58;100365.41;;;6.24;84.01
64078;BME280;51039;49.696;10.808;2023-02-13T14:36:26;100366.31;;;6.35;83.64
64078;BME280;51039;49.696;10.808;2023-02-13T14:39:02;100371.06;;;6.41;82.77
64078;BME280;51039;49.696;10.808;2023-02-13T14:47:17;100360.13;;;6.57;81.03
64078;BME280;51039;49.696;10.808;2023-02-13T14:49:50;100352.91;;;6.59;80.38
64078;BME280;51039;49.696;10.808;2023-02-13T14:53:03;100349.47;;;6.58;80.37
64078;BME280;51039;49.696;10.808;2023-02-13T14:55:30;100346.75;;;6.69;79.71
64078;BME280;51039;49.696;10.808;2023-02-13T14:58:46;100351.69;;;6.63;79.70
64078;BME280;51039;49.696;10.808;2023-02-13T15:00:53;100353.34;;;6.64;79.33
64078;BME280;51039;49.696;10.808;2023-02-13T15:06:06;100344.97;;;6.70;79.44
64078;BME280;51039;49.696;10.808;2023-02-13T15:08:47;100343.16;;;6.71;79.58
64078;BME280;51039;49.696;10.808;2023-02-13T15:19:44;100323.31;;;6.66;79.83
64078;BME280;51039;49.696;10.808;2023-02-13T15:22:31;100330.69;;;6.73;79.81
64078;BME280;51039;49.696;10.808;2023-02-13T15:24:59;100333.19;;;6.74;79.27
64078;BME280;51039;49.696;10.808;2023-02-13T15:27:29;100331.66;;;6.72;79.62
64078;BME280;51039;49.696;10.808;2023-02-13T15:29:59;100333.31;;;6.73;80.28
64078;BME280;51039;49.696;10.808;2023-02-13T15:32:40;100332.63;;;6.71;80.54
64078;BME280;51039;49.696;10.808;2023-02-13T15:35:22;100321.69;;;6.75;80.32
64078;BME280;51039;49.696;10.808;2023-02-13T15:37:52;100320.16;;;6.73;80.59
64078;BME280;51039;49.696;10.808;2023-02-13T15:40:29;100316.13;;;6.68;80.94
64078;BME280;51039;49.696;10.808;2023-02-13T15:43:00;100317.91;;;6.68;80.81
64078;BME280;51039;49.696;10.808;2023-02-13T15:45:26;100315.53;;;6.65;81.25